Sea Drift — WDC2818 — position and weather

sailwx.info

Track history (hours):
 
Tides and Currents Weather Stations Pressure Air Temp Water Temp Dewpoint Dewpoint Depression Visibility Wind Speed Wind Dir Waves Ship Positions

Sea Drift

Owner: Marquette Transportation Company Gulf-Inland, LLC, Jefferson, LA. More information available from US FCC via Universal Licensing System and Coast Guard Vessel Documentation Center.

Last reported at 2017-Feb-19 12:17 UTC. Time now 2017-Feb-21 17:18 UTC.
Position N 30°03' W 091°16'.

Length 23 m; draft 3 m.

Type: Towing. MMSI: 366998080.

Date/timePositionNaut miles runAvg speedWind from/ knotsBaromVisibWave heightAir tempDewpointWater temp
2017-Feb-19 12:17N 30°03' W 091°16'34 0.9
2017-Feb-17 21:10N 29°34' W 090°56'5 4.6
2017-Feb-17 20:09N 29°32' W 090°51'3 4.7
2017-Feb-17 19:33N 29°32' W 090°48'4 3.9
2017-Feb-17 18:33N 29°34' W 090°44'2 1.8
2017-Feb-17 17:33N 29°35' W 090°43'2 2.4
2017-Feb-17 16:33N 29°36' W 090°40'4 3.8
2017-Feb-17 15:33N 29°35' W 090°36'4 3.7
2017-Feb-17 14:33N 29°34' W 090°32'4 3.6
2017-Feb-17 13:33N 29°33' W 090°28'3 2.7
2017-Feb-17 12:33N 29°33' W 090°25'0 0.0
2017-Feb-17 11:33N 29°33' W 090°25'0 0.0
2017-Feb-17 10:19N 29°33' W 090°25'0 0.0
2017-Feb-17 09:24N 29°33' W 090°25'0 0.0
2017-Feb-17 07:33N 29°33' W 090°25'0 0.2
2017-Feb-17 06:33N 29°33' W 090°25'  
2017-Feb-13 07:06N 29°46' W 091°41'0 0.0
2017-Feb-13 06:20N 29°46' W 091°41'0 0.0
2017-Feb-13 05:33N 29°46' W 091°41'2 2.5
2017-Feb-13 04:33N 29°46' W 091°44'4 3.9
2017-Feb-13 03:32N 29°47' W 091°48'5 3.6
2017-Feb-13 02:14N 29°51' W 091°51'3 4.2
2017-Feb-13 01:33N 29°51' W 091°55'4 4.3
2017-Feb-13 00:33N 29°50' W 091°59'4 4.3
2017-Feb-12 23:33N 29°48' W 092°04'4 4.4
2017-Feb-12 22:33N 29°47' W 092°09'3 3.2
2017-Feb-12 21:33N 29°47' W 092°13'2 1.6
2017-Feb-12 20:33N 29°48' W 092°14'0 0.2
2017-Feb-12 19:33N 29°48' W 092°14'1 1.3
2017-Feb-12 18:33N 29°48' W 092°16'4 4.1
2017-Feb-12 17:33N 29°51' W 092°20'4 4.5
2017-Feb-12 16:33N 29°53' W 092°24'5 4.9
2017-Feb-12 15:33N 29°54' W 092°30'6 4.9
2017-Feb-12 14:16N 29°55' W 092°37'19 4.0
2017-Feb-12 09:31N 29°56' W 092°59'5 4.9
2017-Feb-12 08:30N 29°56' W 093°05'4 4.7
2017-Feb-12 07:33N 29°56' W 093°10'5 4.9
2017-Feb-12 06:33N 29°60' W 093°13'3 3.4
2017-Feb-12 05:33N 30°03' W 093°16'3 3.3
2017-Feb-12 04:33N 30°05' W 093°18'1 1.2
2017-Feb-12 03:33N 30°06' W 093°19'3 2.5
2017-Feb-12 02:33N 30°04' W 093°21'4 3.9
2017-Feb-12 01:33N 30°04' W 093°25'5 5.0
2017-Feb-12 00:33N 30°04' W 093°31'5 5.1
2017-Feb-11 23:33N 30°04' W 093°37'5 4.5
2017-Feb-11 22:32N 30°03' W 093°43'69 2.6
2017-Feb-10 19:33N 29°30' W 094°52'6 6.1
2017-Feb-10 18:33N 29°35' W 094°56'7 6.8
2017-Feb-10 17:33N 29°41' W 094°59'6 6.3
2017-Feb-10 16:33N 29°45' W 095°04'2 1.6
2017-Feb-10 15:31N 29°46' W 095°06'0 0.2
2017-Feb-10 14:33N 29°46' W 095°06'4 0.5
2017-Feb-10 06:07N 29°44' W 095°02'5 7.0
2017-Feb-10 05:26N 29°40' W 094°59'7 8.2
2017-Feb-10 04:33N 29°34' W 094°55'  
Track history (hours):
 
Tides and Currents Weather Stations Pressure Air Temp Water Temp Dewpoint Dewpoint Depression Visibility Wind Speed Wind Dir Waves Ship Positions

Sea Drift

Owner: Marquette Transportation Company Gulf-Inland, LLC, Jefferson, LA. More information available from US FCC via Universal Licensing System and Coast Guard Vessel Documentation Center.

Last reported at 2017-Feb-19 12:17 UTC. Time now 2017-Feb-21 17:18 UTC.
Position N 30°03' W 091°16'.

Length 23 m; draft 3 m.

Type: Towing. MMSI: 366998080.

Date/timePositionNaut miles runAvg speedWind from/ knotsBaromVisibWave heightAir tempDewpointWater temp
2017-Feb-19 12:17N 30°03' W 091°16'34 0.9
2017-Feb-17 21:10N 29°34' W 090°56'5 4.6
2017-Feb-17 20:09N 29°32' W 090°51'3 4.7
2017-Feb-17 19:33N 29°32' W 090°48'4 3.9
2017-Feb-17 18:33N 29°34' W 090°44'2 1.8
2017-Feb-17 17:33N 29°35' W 090°43'2 2.4
2017-Feb-17 16:33N 29°36' W 090°40'4 3.8
2017-Feb-17 15:33N 29°35' W 090°36'4 3.7
2017-Feb-17 14:33N 29°34' W 090°32'4 3.6
2017-Feb-17 13:33N 29°33' W 090°28'3 2.7
2017-Feb-17 12:33N 29°33' W 090°25'0 0.0
2017-Feb-17 11:33N 29°33' W 090°25'0 0.0
2017-Feb-17 10:19N 29°33' W 090°25'0 0.0
2017-Feb-17 09:24N 29°33' W 090°25'0 0.0
2017-Feb-17 07:33N 29°33' W 090°25'0 0.2
2017-Feb-17 06:33N 29°33' W 090°25'  
2017-Feb-13 07:06N 29°46' W 091°41'0 0.0
2017-Feb-13 06:20N 29°46' W 091°41'0 0.0
2017-Feb-13 05:33N 29°46' W 091°41'2 2.5
2017-Feb-13 04:33N 29°46' W 091°44'4 3.9
2017-Feb-13 03:32N 29°47' W 091°48'5 3.6
2017-Feb-13 02:14N 29°51' W 091°51'3 4.2
2017-Feb-13 01:33N 29°51' W 091°55'4 4.3
2017-Feb-13 00:33N 29°50' W 091°59'4 4.3
2017-Feb-12 23:33N 29°48' W 092°04'4 4.4
2017-Feb-12 22:33N 29°47' W 092°09'3 3.2
2017-Feb-12 21:33N 29°47' W 092°13'2 1.6
2017-Feb-12 20:33N 29°48' W 092°14'0 0.2
2017-Feb-12 19:33N 29°48' W 092°14'1 1.3
2017-Feb-12 18:33N 29°48' W 092°16'4 4.1
2017-Feb-12 17:33N 29°51' W 092°20'4 4.5
2017-Feb-12 16:33N 29°53' W 092°24'5 4.9
2017-Feb-12 15:33N 29°54' W 092°30'6 4.9
2017-Feb-12 14:16N 29°55' W 092°37'19 4.0
2017-Feb-12 09:31N 29°56' W 092°59'5 4.9
2017-Feb-12 08:30N 29°56' W 093°05'4 4.7
2017-Feb-12 07:33N 29°56' W 093°10'5 4.9
2017-Feb-12 06:33N 29°60' W 093°13'3 3.4
2017-Feb-12 05:33N 30°03' W 093°16'3 3.3
2017-Feb-12 04:33N 30°05' W 093°18'1 1.2
2017-Feb-12 03:33N 30°06' W 093°19'3 2.5
2017-Feb-12 02:33N 30°04' W 093°21'4 3.9
2017-Feb-12 01:33N 30°04' W 093°25'5 5.0
2017-Feb-12 00:33N 30°04' W 093°31'5 5.1
2017-Feb-11 23:33N 30°04' W 093°37'5 4.5
2017-Feb-11 22:32N 30°03' W 093°43'69 2.6
2017-Feb-10 19:33N 29°30' W 094°52'6 6.1
2017-Feb-10 18:33N 29°35' W 094°56'7 6.8
2017-Feb-10 17:33N 29°41' W 094°59'6 6.3
2017-Feb-10 16:33N 29°45' W 095°04'2 1.6
2017-Feb-10 15:31N 29°46' W 095°06'0 0.2
2017-Feb-10 14:33N 29°46' W 095°06'4 0.5
2017-Feb-10 06:07N 29°44' W 095°02'5 7.0
2017-Feb-10 05:26N 29°40' W 094°59'7 8.2
2017-Feb-10 04:33N 29°34' W 094°55'  

Dump ship's entire track history